Time;durP1;ratioP1;P1;durP2;ratioP2;P2;SDS_P1;SDS_P2;PMS_P1;PMS_P2;Temp;Humidity;BMP_temperature;BMP_pressure;BME280_temperature;BME280_humidity;BME280_pressure;Samples;Min_cycle;Max_cycle;Signal;HPM_P1;HPM_P2
2023/02/01 00:01:54;;;;;;;11.33;5.40;;;4.40;88.70;;;;;;5011927;28;20205;-76
2023/02/01 00:04:19;;;;;;;7.80;5.13;;;4.40;89.00;;;;;;5022507;28;20470;-75
2023/02/01 00:06:45;;;;;;;10.53;5.50;;;4.40;89.00;;;;;;5023099;28;20871;-76
2023/02/01 00:09:10;;;;;;;8.90;4.83;;;4.40;89.00;;;;;;5014967;28;20281;-77
2023/02/01 00:11:36;;;;;;;8.63;4.53;;;4.30;89.20;;;;;;5027257;28;20218;-75
2023/02/01 00:14:01;;;;;;;8.10;4.80;;;4.30;89.30;;;;;;5028704;28;20185;-75
2023/02/01 00:16:29;;;;;;;6.80;4.30;;;4.30;89.30;;;;;;5014769;28;20192;-76
2023/02/01 00:19:03;;;;;;;6.43;4.10;;;4.30;89.20;;;;;;5028384;28;20189;-73
2023/02/01 00:21:30;;;;;;;7.73;4.50;;;4.30;89.30;;;;;;5029013;28;20814;-75
2023/02/01 00:23:56;;;;;;;7.03;3.97;;;4.30;89.20;;;;;;5012565;28;20421;-76
2023/02/01 00:26:44;;;;;;;7.77;4.50;;;4.30;89.20;;;;;;5019836;28;20510;-77
2023/02/01 00:29:16;;;;;;;9.23;4.40;;;4.40;89.00;;;;;;5013840;28;20413;-75
2023/02/01 00:31:41;;;;;;;7.37;4.30;;;4.40;88.70;;;;;;5017553;28;20455;-74
2023/02/01 00:34:09;;;;;;;7.50;4.07;;;4.40;88.60;;;;;;5022252;28;20781;-76
2023/02/01 00:36:35;;;;;;;8.30;4.27;;;4.40;88.60;;;;;;5019730;28;20178;-75
2023/02/01 00:39:01;;;;;;;7.87;4.30;;;4.40;88.40;;;;;;5015404;28;20415;-75
2023/02/01 00:41:26;;;;;;;6.67;3.67;;;4.40;88.40;;;;;;5025459;28;20202;-75
2023/02/01 00:43:52;;;;;;;6.87;3.70;;;4.40;88.40;;;;;;5022711;28;20657;-74
2023/02/01 00:46:19;;;;;;;7.30;3.83;;;4.50;88.30;;;;;;5022972;28;20287;-76
2023/02/01 00:48:45;;;;;;;6.73;3.53;;;4.50;88.30;;;;;;5024590;28;20189;-75
2023/02/01 00:51:14;;;;;;;5.17;3.60;;;4.50;88.30;;;;;;5023474;28;20475;-75
2023/02/01 00:53:40;;;;;;;6.40;3.70;;;4.50;88.10;;;;;;5017084;28;20188;-76
2023/02/01 00:56:06;;;;;;;6.70;3.40;;;4.50;88.10;;;;;;5018198;28;20452;-76
2023/02/01 00:58:33;;;;;;;6.17;3.83;;;4.50;88.10;;;;;;5023999;28;20464;-77
2023/02/01 01:01:20;;;;;;;7.20;4.10;;;4.50;88.10;;;;;;5013798;28;20883;-76
2023/02/01 01:03:50;;;;;;;8.23;3.63;;;4.50;88.10;;;;;;5028017;28;20421;-76
2023/02/01 01:06:17;;;;;;;6.80;3.73;;;4.50;88.10;;;;;;5025125;28;20428;-75
2023/02/01 01:08:43;;;;;;;7.13;3.17;;;4.50;88.10;;;;;;5034483;28;20415;-75
2023/02/01 01:11:15;;;;;;;6.20;3.80;;;4.50;88.00;;;;;;5052762;28;20469;-75
2023/02/01 01:13:42;;;;;;;5.67;3.40;;;4.50;88.00;;;;;;5043256;28;20418;-76
2023/02/01 01:16:10;;;;;;;6.93;3.30;;;4.50;88.00;;;;;;5034091;28;20424;-76
2023/02/01 01:18:36;;;;;;;5.70;3.00;;;4.50;88.00;;;;;;5031783;28;20511;-74
2023/02/01 01:21:04;;;;;;;5.50;3.50;;;4.50;87.80;;;;;;5046430;28;20459;-76
2023/02/01 01:23:29;;;;;;;6.33;3.37;;;4.60;88.00;;;;;;5032971;28;20428;-75
2023/02/01 01:25:55;;;;;;;4.30;2.90;;;4.50;87.80;;;;;;5020461;28;20464;-75
2023/02/01 01:28:21;;;;;;;4.23;3.13;;;4.60;87.80;;;;;;5023079;28;20190;-76
2023/02/01 01:30:46;;;;;;;4.20;2.97;;;4.50;87.80;;;;;;5018323;28;20292;-75
2023/02/01 01:33:12;;;;;;;4.70;3.30;;;4.60;87.80;;;;;;5020147;28;20185;-74
2023/02/01 01:35:38;;;;;;;4.80;2.80;;;4.60;87.70;;;;;;5026182;28;20193;-75
2023/02/01 01:38:04;;;;;;;7.93;3.10;;;4.60;87.60;;;;;;5018164;28;20198;-77
2023/02/01 01:40:30;;;;;;;5.60;3.10;;;4.60;87.60;;;;;;5016960;28;20217;-77
2023/02/01 01:42:56;;;;;;;3.03;2.50;;;4.60;87.60;;;;;;5019649;28;20182;-76
2023/02/01 01:45:27;;;;;;;4.37;3.27;;;4.60;87.40;;;;;;5014962;28;20872;-76
2023/02/01 01:47:56;;;;;;;2.60;2.23;;;4.60;87.30;;;;;;5014990;28;20421;-76
2023/02/01 01:50:28;;;;;;;3.10;2.50;;;4.70;87.10;;;;;;5013664;28;20506;-76
2023/02/01 01:52:56;;;;;;;4.40;2.60;;;4.70;87.00;;;;;;5021266;28;20424;-76
2023/02/01 01:55:24;;;;;;;3.63;2.20;;;4.70;87.00;;;;;;5013956;28;20425;-76
2023/02/01 01:58:01;;;;;;;6.13;3.17;;;4.70;86.90;;;;;;5021881;28;20494;-77
2023/02/01 02:00:28;;;;;;;8.40;2.97;;;4.70;86.80;;;;;;5019351;28;20509;-77
2023/02/01 02:02:59;;;;;;;6.40;3.00;;;4.70;86.90;;;;;;5024884;28;20429;-75
2023/02/01 02:05:26;;;;;;;4.80;2.90;;;4.70;87.00;;;;;;5028690;28;20460;-76
2023/02/01 02:07:56;;;;;;;3.63;2.70;;;4.60;87.00;;;;;;5033987;28;20936;-76
2023/02/01 02:10:59;;;;;;;4.13;2.73;;;4.70;87.00;;;;;;5020312;28;20807;-74
2023/02/01 02:13:08;;;;;;;4.77;2.50;;;4.70;87.00;;;;;;5012294;28;20880;-75
2023/02/01 02:15:35;;;;;;;5.07;3.00;;;4.70;87.00;;;;;;5020615;28;20444;-74
2023/02/01 02:18:25;;;;;;;4.37;2.80;;;4.70;86.90;;;;;;5030520;28;20424;-74
2023/02/01 02:21:02;;;;;;;6.90;3.10;;;4.70;86.90;;;;;;5028014;28;20448;-75
2023/02/01 02:23:46;;;;;;;3.80;2.63;;;4.70;86.90;;;;;;5042215;28;20467;-75
2023/02/01 02:26:38;;;;;;;6.10;2.83;;;4.60;87.10;;;;;;5014024;28;20455;-76
2023/02/01 02:29:47;;;;;;;5.10;3.03;;;4.70;87.10;;;;;;5018135;28;20494;-76
2023/02/01 02:32:34;;;;;;;4.80;2.97;;;4.70;87.00;;;;;;5016160;28;20471;-74
2023/02/01 02:35:06;;;;;;;6.43;3.00;;;4.70;87.10;;;;;;5012102;28;20835;-75
2023/02/01 02:37:53;;;;;;;5.37;2.90;;;4.70;87.30;;;;;;5010679;28;20455;-75
2023/02/01 02:41:00;;;;;;;4.10;2.97;;;4.70;87.10;;;;;;5020809;28;20452;-74
2023/02/01 02:49:09;;;;;;;3.90;2.80;;;4.80;87.10;;;;;;5033882;28;20479;-74
2023/02/01 02:54:51;;;;;;;4.60;2.90;;;4.80;87.00;;;;;;5015911;28;20198;-75
2023/02/01 03:05:50;;;;;;;6.27;3.20;;;4.70;88.40;;;;;;5021089;28;20451;-75
2023/02/01 03:08:22;;;;;;;7.73;3.90;;;4.70;89.00;;;;;;5015353;28;20421;-76
2023/02/01 03:10:59;;;;;;;4.50;3.20;;;4.70;89.30;;;;;;5016761;28;20467;-76
2023/02/01 03:13:28;;;;;;;6.30;3.30;;;4.60;89.50;;;;;;5021407;28;20488;-75
2023/02/01 03:16:07;;;;;;;4.27;3.27;;;4.60;89.60;;;;;;5021433;28;20447;-77
2023/02/01 03:18:48;;;;;;;7.27;3.30;;;4.70;89.30;;;;;;5011877;28;20417;-76
2023/02/01 03:21:20;;;;;;;5.97;3.70;;;4.70;89.20;;;;;;5011132;28;20451;-75
2023/02/01 03:23:47;;;;;;;5.10;3.23;;;4.70;89.20;;;;;;5016155;28;20425;-74
2023/02/01 03:26:16;;;;;;;7.73;4.10;;;4.70;88.90;;;;;;5012974;28;20500;-76
2023/02/01 03:28:48;;;;;;;4.20;3.13;;;4.70;89.00;;;;;;5013340;28;20409;-74
2023/02/01 03:31:13;;;;;;;4.73;3.30;;;4.70;88.90;;;;;;5012954;28;20449;-75
2023/02/01 03:33:40;;;;;;;4.70;3.30;;;4.70;88.70;;;;;;5015994;28;20439;-76
2023/02/01 03:36:29;;;;;;;5.70;3.63;;;4.70;88.90;;;;;;5015105;28;20213;-74
2023/02/01 03:39:18;;;;;;;4.43;2.93;;;4.70;89.20;;;;;;5024105;28;20491;-76
2023/02/01 03:41:50;;;;;;;4.27;2.90;;;4.70;89.20;;;;;;5012855;28;21150;-75
2023/02/01 03:44:38;;;;;;;4.80;3.10;;;4.70;89.20;;;;;;5016161;28;20590;-74
2023/02/01 03:47:24;;;;;;;3.97;2.60;;;4.70;89.00;;;;;;5016915;28;20451;-75
2023/02/01 03:49:56;;;;;;;3.60;2.37;;;4.80;88.30;;;;;;5009381;28;20908;-75
2023/02/01 03:52:27;;;;;;;3.23;2.30;;;4.80;87.60;;;;;;5021269;28;20436;-76
2023/02/01 03:54:54;;;;;;;4.60;2.87;;;4.90;87.10;;;;;;5022621;28;20430;-74
2023/02/01 03:57:31;;;;;;;6.03;3.70;;;5.00;86.90;;;;;;5023654;28;20409;-75
2023/02/01 04:00:09;;;;;;;4.87;3.40;;;5.00;86.90;;;;;;5038244;28;20427;-76
2023/02/01 04:02:35;;;;;;;5.13;3.23;;;4.90;87.10;;;;;;5012088;28;20462;-73
2023/02/01 04:05:01;;;;;;;5.63;3.17;;;4.90;87.60;;;;;;5029178;28;20493;-75
2023/02/01 04:07:26;;;;;;;4.33;3.03;;;4.90;87.70;;;;;;5043505;28;20185;-75
2023/02/01 04:09:52;;;;;;;4.30;2.97;;;4.90;87.80;;;;;;5036658;28;20280;-74
2023/02/01 04:12:17;;;;;;;4.87;3.00;;;4.90;87.80;;;;;;5026406;28;20209;-75
2023/02/01 04:14:43;;;;;;;5.07;3.20;;;4.90;87.60;;;;;;5024948;28;20236;-76
2023/02/01 04:17:08;;;;;;;4.67;3.30;;;4.90;87.40;;;;;;5026776;28;20200;-75
2023/02/01 04:19:34;;;;;;;4.80;3.00;;;4.90;87.30;;;;;;5017834;28;20194;-74
2023/02/01 04:21:59;;;;;;;4.87;3.10;;;5.00;87.10;;;;;;5009433;28;20206;-74
2023/02/01 04:24:25;;;;;;;5.33;3.27;;;5.00;87.10;;;;;;5023928;28;20216;-76
2023/02/01 04:26:50;;;;;;;5.30;3.60;;;5.00;87.10;;;;;;5033624;28;20185;-75
2023/02/01 04:29:16;;;;;;;7.40;3.97;;;5.00;87.30;;;;;;5023377;28;20269;-75
2023/02/01 04:31:41;;;;;;;6.37;3.63;;;4.90;87.40;;;;;;5012972;28;20563;-75
2023/02/01 04:34:07;;;;;;;9.27;3.90;;;4.90;87.60;;;;;;5022395;28;20189;-75
2023/02/01 04:36:33;;;;;;;5.43;3.60;;;4.90;87.70;;;;;;5028939;28;20241;-75
2023/02/01 04:38:58;;;;;;;6.30;4.03;;;4.90;87.70;;;;;;5023414;28;20192;-75
2023/02/01 04:41:24;;;;;;;8.20;3.70;;;4.90;87.70;;;;;;5013122;28;20210;-74
2023/02/01 04:43:51;;;;;;;6.77;4.10;;;4.90;87.70;;;;;;5020795;28;20186;-75
2023/02/01 04:46:17;;;;;;;5.03;3.33;;;4.80;87.80;;;;;;5015922;28;20213;-76
2023/02/01 04:48:43;;;;;;;6.80;3.30;;;4.90;87.80;;;;;;5020063;28;20423;-74
2023/02/01 04:51:09;;;;;;;4.50;3.23;;;4.90;87.70;;;;;;5010133;28;20558;-75
2023/02/01 04:53:35;;;;;;;6.93;4.13;;;5.00;87.40;;;;;;5013807;28;20214;-75
2023/02/01 04:56:01;;;;;;;6.20;3.40;;;5.00;87.40;;;;;;5020740;28;20471;-75
2023/02/01 04:58:26;;;;;;;4.80;3.10;;;5.00;87.30;;;;;;5021520;28;20577;-76
2023/02/01 05:00:52;;;;;;;4.87;3.03;;;5.00;87.30;;;;;;5017225;28;20221;-74
2023/02/01 05:03:18;;;;;;;6.67;3.70;;;5.00;87.00;;;;;;5015554;28;20186;-75
2023/02/01 05:05:44;;;;;;;4.73;3.00;;;5.10;87.10;;;;;;5018677;28;20993;-75
2023/02/01 05:08:09;;;;;;;5.00;3.47;;;5.10;86.80;;;;;;5013590;28;20508;-76
2023/02/01 05:10:35;;;;;;;6.80;3.53;;;5.10;86.90;;;;;;5009358;28;20207;-74
2023/02/01 05:15:45;;;;;;;7.47;3.13;;;5.10;86.60;;;;;;5018115;28;20197;-77
2023/02/01 05:18:12;;;;;;;3.57;2.57;;;5.10;86.30;;;;;;5017525;28;20437;-75
2023/02/01 05:20:38;;;;;;;4.50;2.60;;;5.10;86.20;;;;;;5016240;28;20989;-75
2023/02/01 05:23:03;;;;;;;4.47;2.70;;;5.10;86.20;;;;;;5025310;28;20421;-75
2023/02/01 05:25:29;;;;;;;7.60;3.40;;;5.20;86.20;;;;;;5019287;28;20546;-76
2023/02/01 05:27:54;;;;;;;5.33;3.23;;;5.20;86.20;;;;;;5013946;28;20637;-73
2023/02/01 05:30:20;;;;;;;5.03;3.07;;;5.20;85.90;;;;;;5010003;28;20209;-75
2023/02/01 05:32:50;;;;;;;4.50;2.90;;;5.20;85.90;;;;;;5012815;28;20181;-75
2023/02/01 05:35:15;;;;;;;3.33;2.83;;;5.20;86.00;;;;;;5019755;28;20416;-74
2023/02/01 05:37:41;;;;;;;3.80;2.90;;;5.20;86.00;;;;;;5026010;28;20448;-75
2023/02/01 05:40:07;;;;;;;5.33;2.73;;;5.20;86.00;;;;;;5019586;28;21033;-75
2023/02/01 05:42:33;;;;;;;5.30;3.30;;;5.20;86.20;;;;;;5014924;28;20269;-76
2023/02/01 05:44:59;;;;;;;3.47;2.53;;;5.20;86.20;;;;;;5020076;28;20463;-76
2023/02/01 05:47:24;;;;;;;4.83;2.83;;;5.20;86.20;;;;;;5023681;28;20423;-74
2023/02/01 05:49:50;;;;;;;4.43;3.17;;;5.20;86.50;;;;;;5021349;28;20207;-75
2023/02/01 05:52:19;;;;;;;4.63;3.00;;;5.10;86.50;;;;;;5015432;28;20256;-75
2023/02/01 05:54:46;;;;;;;4.33;3.00;;;5.20;86.60;;;;;;5017827;28;20192;-75
2023/02/01 05:57:12;;;;;;;4.20;2.60;;;5.10;86.80;;;;;;5019760;28;20427;-75
2023/02/01 05:59:40;;;;;;;5.63;3.43;;;5.00;87.70;;;;;;5016502;28;20430;-73
2023/02/01 06:02:07;;;;;;;9.13;3.40;;;4.90;88.40;;;;;;5010959;28;20468;-74
2023/02/01 06:04:32;;;;;;;5.93;3.37;;;4.80;89.60;;;;;;5013480;28;20833;-74
2023/02/01 06:06:58;;;;;;;5.10;3.50;;;4.70;90.20;;;;;;5015941;28;20900;-75
2023/02/01 06:09:23;;;;;;;4.93;3.57;;;4.60;90.60;;;;;;5025541;28;20206;-75
2023/02/01 06:11:49;;;;;;;4.77;2.93;;;4.50;90.70;;;;;;5021454;28;20208;-76
2023/02/01 06:14:14;;;;;;;4.30;3.10;;;4.50;90.80;;;;;;5029214;28;20715;-74
2023/02/01 06:16:40;;;;;;;5.03;3.10;;;4.50;90.80;;;;;;5017217;28;20248;-74
2023/02/01 06:19:06;;;;;;;4.43;2.70;;;4.50;90.80;;;;;;5022761;28;20193;-76
2023/02/01 06:21:31;;;;;;;5.23;3.10;;;4.50;90.70;;;;;;5012644;28;20206;-75
2023/02/01 06:23:58;;;;;;;5.50;2.60;;;4.50;90.60;;;;;;5020507;28;20189;-75
2023/02/01 06:26:23;;;;;;;5.00;3.20;;;4.50;90.50;;;;;;5015759;28;20216;-74
2023/02/01 06:28:49;;;;;;;5.03;2.93;;;4.60;90.40;;;;;;5016173;28;20425;-75
2023/02/01 06:31:15;;;;;;;6.20;3.10;;;4.70;90.00;;;;;;5024442;28;20221;-75
2023/02/01 06:33:41;;;;;;;5.60;3.07;;;4.70;89.60;;;;;;5033222;28;20429;-75
2023/02/01 06:36:09;;;;;;;5.87;2.80;;;4.70;89.50;;;;;;5031985;28;20212;-76
2023/02/01 06:38:35;;;;;;;9.00;2.97;;;4.70;89.30;;;;;;5036977;28;20260;-75
2023/02/01 06:41:02;;;;;;;4.37;2.90;;;4.80;89.50;;;;;;5024724;28;20487;-76
2023/02/01 06:43:28;;;;;;;5.03;3.20;;;4.80;89.50;;;;;;5024606;28;20528;-74
2023/02/01 06:45:59;;;;;;;3.83;2.90;;;4.80;89.60;;;;;;5028631;28;20475;-75
2023/02/01 06:48:24;;;;;;;6.07;3.57;;;4.80;89.70;;;;;;5028503;28;20423;-76
2023/02/01 06:50:50;;;;;;;7.87;3.10;;;4.80;89.70;;;;;;5023132;28;20456;-75
2023/02/01 06:53:15;;;;;;;6.67;3.53;;;4.80;89.70;;;;;;5017644;28;20182;-76
2023/02/01 06:55:41;;;;;;;5.10;3.47;;;4.80;89.70;;;;;;5011864;28;20186;-74
2023/02/01 06:58:07;;;;;;;8.73;3.53;;;4.80;89.70;;;;;;5021401;28;20201;-77
2023/02/01 07:00:32;;;;;;;5.90;3.80;;;4.90;89.20;;;;;;5013644;28;20213;-75
2023/02/01 07:02:59;;;;;;;8.10;3.23;;;5.00;88.60;;;;;;5014106;28;20182;-76
2023/02/01 07:05:25;;;;;;;7.23;3.47;;;5.10;88.40;;;;;;5011755;28;20231;-75
2023/02/01 07:07:50;;;;;;;9.83;3.07;;;5.10;88.00;;;;;;5011983;28;20460;-75
2023/02/01 07:10:16;;;;;;;5.30;3.10;;;5.20;87.60;;;;;;5012583;28;20936;-76
2023/02/01 07:12:42;;;;;;;7.60;3.50;;;5.20;87.00;;;;;;5021296;28;20189;-76
2023/02/01 07:15:08;;;;;;;4.53;3.10;;;5.20;87.00;;;;;;5025011;28;20419;-75
2023/02/01 07:17:33;;;;;;;7.50;3.30;;;5.30;86.60;;;;;;5020305;28;20340;-75
2023/02/01 07:19:59;;;;;;;4.60;3.57;;;5.30;86.50;;;;;;5020749;28;20561;-77
2023/02/01 07:22:26;;;;;;;4.73;3.30;;;5.30;86.60;;;;;;5014030;28;20213;-77
2023/02/01 07:24:51;;;;;;;3.90;3.17;;;5.30;86.60;;;;;;5016919;28;20457;-75
2023/02/01 07:27:17;;;;;;;8.50;3.97;;;5.40;86.80;;;;;;5021229;28;20937;-75
2023/02/01 07:29:42;;;;;;;5.00;3.30;;;5.40;86.30;;;;;;5018711;28;20742;-75
2023/02/01 07:32:08;;;;;;;5.87;3.43;;;5.40;86.20;;;;;;5009275;28;20676;-75
2023/02/01 07:34:34;;;;;;;5.87;3.07;;;5.40;86.20;;;;;;5018626;28;20661;-76
2023/02/01 07:37:00;;;;;;;6.57;3.77;;;5.30;86.20;;;;;;5015448;28;20188;-76
2023/02/01 07:39:28;;;;;;;5.37;3.60;;;5.30;86.30;;;;;;5017848;28;20489;-75
2023/02/01 07:41:53;;;;;;;6.93;3.43;;;5.30;86.50;;;;;;5012142;28;20298;-75
2023/02/01 07:44:22;;;;;;;5.77;3.53;;;5.30;86.60;;;;;;5013125;28;20519;-76
2023/02/01 07:46:48;;;;;;;7.00;3.20;;;5.30;86.60;;;;;;5027529;28;20416;-76
2023/02/01 07:49:13;;;;;;;6.10;3.43;;;5.40;86.50;;;;;;5021408;28;20443;-76
2023/02/01 07:51:39;;;;;;;6.07;3.60;;;5.40;86.00;;;;;;5021694;28;20467;-77
2023/02/01 07:54:05;;;;;;;5.87;3.60;;;5.40;85.90;;;;;;5017651;28;20209;-76
2023/02/01 07:56:30;;;;;;;5.07;3.30;;;5.40;85.60;;;;;;5019015;28;20193;-76
2023/02/01 07:58:56;;;;;;;4.70;3.27;;;5.40;85.50;;;;;;5012802;28;20202;-75
2023/02/01 08:01:26;;;;;;;6.70;3.20;;;5.50;85.30;;;;;;5008323;28;20221;-75
2023/02/01 08:03:54;;;;;;;4.40;3.70;;;5.50;84.70;;;;;;5013192;28;20189;-77
2023/02/01 08:06:20;;;;;;;6.83;3.50;;;5.50;84.30;;;;;;5016924;28;20487;-76
2023/02/01 08:08:47;;;;;;;11.67;3.90;;;5.50;84.10;;;;;;5018442;28;20413;-76
2023/02/01 08:11:14;;;;;;;5.40;3.20;;;5.60;84.30;;;;;;5007358;28;20602;-75
2023/02/01 08:13:40;;;;;;;5.97;3.70;;;5.60;84.10;;;;;;5011152;28;20425;-74
2023/02/01 08:16:07;;;;;;;5.80;3.80;;;5.60;83.80;;;;;;5010892;28;20444;-75
2023/02/01 08:18:34;;;;;;;6.90;3.70;;;5.70;83.70;;;;;;5010942;28;20649;-74
2023/02/01 08:21:04;;;;;;;8.57;4.03;;;5.70;83.70;;;;;;5010382;28;20468;-76
2023/02/01 08:23:29;;;;;;;8.60;3.50;;;5.60;83.80;;;;;;5010735;28;20417;-76
2023/02/01 08:26:08;;;;;;;6.03;3.70;;;5.70;83.80;;;;;;5010748;28;20483;-75
2023/02/01 08:28:33;;;;;;;4.83;3.40;;;5.70;83.40;;;;;;5005544;28;20554;-73
2023/02/01 08:31:03;;;;;;;5.43;3.33;;;5.80;83.30;;;;;;5007387;28;20469;-75
2023/02/01 08:33:28;;;;;;;5.40;3.60;;;5.80;83.10;;;;;;5014313;28;20248;-75
2023/02/01 08:35:54;;;;;;;7.23;4.07;;;5.80;83.00;;;;;;5012145;28;20432;-75
2023/02/01 08:38:19;;;;;;;4.97;3.40;;;5.90;82.40;;;;;;5015432;28;20205;-76
2023/02/01 08:40:46;;;;;;;6.03;3.60;;;5.90;82.10;;;;;;5022583;28;20213;-75
2023/02/01 08:43:11;;;;;;;14.87;4.43;;;5.90;81.80;;;;;;5019595;28;20197;-74
2023/02/01 08:45:40;;;;;;;8.80;4.50;;;6.00;81.40;;;;;;5015862;28;20471;-73
2023/02/01 08:48:06;;;;;;;8.87;3.40;;;6.00;81.10;;;;;;5011379;28;20209;-76
2023/02/01 08:50:31;;;;;;;9.40;3.83;;;6.10;81.40;;;;;;5012212;28;20492;-75
2023/02/01 08:52:57;;;;;;;9.73;4.00;;;6.20;80.90;;;;;;5021155;28;20182;-75
2023/02/01 08:55:22;;;;;;;6.83;4.17;;;6.20;80.50;;;;;;5013448;28;20272;-75
2023/02/01 08:57:48;;;;;;;5.33;3.70;;;6.20;80.20;;;;;;5015270;28;20212;-74
2023/02/01 09:00:16;;;;;;;6.10;3.60;;;6.20;80.00;;;;;;5015476;28;20934;-75
2023/02/01 09:02:42;;;;;;;9.63;4.23;;;6.30;79.60;;;;;;5010995;28;20197;-74
2023/02/01 09:05:08;;;;;;;9.80;3.97;;;6.30;79.60;;;;;;5015249;28;20467;-75
2023/02/01 09:07:34;;;;;;;10.57;4.87;;;6.30;78.90;;;;;;5023209;28;20412;-74
2023/02/01 09:10:00;;;;;;;7.93;4.03;;;6.30;78.70;;;;;;5021271;28;20504;-74
2023/02/01 09:12:28;;;;;;;8.03;3.53;;;6.40;78.60;;;;;;5012510;28;20438;-74
2023/02/01 09:14:55;;;;;;;5.63;3.00;;;6.30;78.60;;;;;;5019283;28;20435;-76
2023/02/01 09:17:20;;;;;;;8.80;4.40;;;6.30;78.30;;;;;;5020726;28;20446;-74
2023/02/01 09:19:46;;;;;;;8.73;4.13;;;6.30;78.60;;;;;;5016329;28;20421;-75
2023/02/01 09:22:11;;;;;;;9.37;4.03;;;6.30;78.40;;;;;;5013710;28;20225;-76
2023/02/01 09:24:37;;;;;;;8.37;4.00;;;6.40;78.60;;;;;;5015621;28;20225;-76
2023/02/01 09:27:02;;;;;;;13.73;4.30;;;6.50;78.40;;;;;;5014428;28;20182;-74
2023/02/01 09:29:28;;;;;;;8.70;3.30;;;6.40;77.60;;;;;;5019015;28;20238;-75
2023/02/01 09:31:54;;;;;;;7.10;3.57;;;6.50;78.00;;;;;;5013968;28;20301;-77
2023/02/01 09:34:19;;;;;;;10.30;4.30;;;6.60;78.00;;;;;;5019578;28;20200;-75
2023/02/01 09:36:45;;;;;;;8.93;3.60;;;6.70;77.30;;;;;;5019097;28;20559;-75
2023/02/01 09:39:10;;;;;;;11.00;3.93;;;6.70;77.00;;;;;;5014744;28;20721;-76
2023/02/01 09:41:59;;;;;;;8.03;3.93;;;6.70;76.40;;;;;;5019924;28;20585;-75
2023/02/01 09:44:51;;;;;;;8.40;3.93;;;6.80;76.70;;;;;;5019993;28;20243;-76
2023/02/01 09:47:23;;;;;;;11.10;4.00;;;6.90;75.90;;;;;;5023427;28;20412;-76
2023/02/01 09:50:03;;;;;;;10.40;4.37;;;6.90;75.90;;;;;;5022330;28;20467;-76
2023/02/01 09:52:42;;;;;;;8.83;3.60;;;6.90;75.70;;;;;;5017585;28;20511;-76
2023/02/01 09:55:18;;;;;;;10.83;3.40;;;6.90;75.90;;;;;;5027410;28;20423;-75
2023/02/01 09:57:55;;;;;;;10.50;3.73;;;7.00;75.50;;;;;;5020026;28;20471;-76
2023/02/01 10:00:31;;;;;;;11.90;4.30;;;7.00;74.60;;;;;;5021365;28;20470;-78
2023/02/01 10:02:57;;;;;;;14.13;4.40;;;7.00;74.30;;;;;;5016571;28;20436;-77
2023/02/01 10:05:42;;;;;;;10.47;4.03;;;7.10;73.90;;;;;;5015700;28;20464;-79
2023/02/01 10:08:26;;;;;;;11.30;4.00;;;7.10;73.70;;;;;;5015262;28;20192;-79
2023/02/01 10:10:55;;;;;;;11.80;3.50;;;7.10;73.30;;;;;;5013198;28;20516;-79
2023/02/01 10:14:02;;;;;;;8.40;3.73;;;7.00;73.60;;;;;;5015294;28;20417;-77
2023/02/01 10:16:51;;;;;;;12.17;4.10;;;7.10;73.60;;;;;;5019626;28;20834;-78
2023/02/01 10:19:46;;;;;;;8.60;3.40;;;6.90;73.70;;;;;;5017429;28;20494;-77
2023/02/01 10:22:29;;;;;;;10.57;3.93;;;7.00;73.70;;;;;;5019265;28;20450;-78
2023/02/01 10:25:07;;;;;;;8.03;3.63;;;7.10;73.50;;;;;;5019502;28;20951;-78
2023/02/01 10:27:39;;;;;;;11.13;3.80;;;7.10;72.40;;;;;;5007286;28;20416;-77
2023/02/01 10:30:22;;;;;;;17.13;3.70;;;7.20;72.70;;;;;;5023564;28;20427;-77
2023/02/01 10:32:54;;;;;;;12.43;3.40;;;7.30;72.30;;;;;;5012876;28;20514;-77
2023/02/01 10:35:27;;;;;;;9.17;3.97;;;7.30;72.30;;;;;;5013155;28;20912;-79
2023/02/01 10:37:52;;;;;;;15.70;4.30;;;7.30;72.30;;;;;;5015542;28;20412;-77
2023/02/01 10:40:24;;;;;;;13.17;3.57;;;7.30;72.40;;;;;;5015056;28;20532;-77
2023/02/01 10:42:52;;;;;;;15.37;3.50;;;7.30;72.70;;;;;;5022943;28;20194;-78
2023/02/01 10:45:24;;;;;;;8.57;3.37;;;7.30;72.30;;;;;;5015591;28;21044;-79
2023/02/01 10:47:52;;;;;;;12.90;3.90;;;7.10;72.30;;;;;;5014257;28;20413;-78
2023/02/01 10:50:44;;;;;;;13.30;3.27;;;7.20;72.70;;;;;;5014487;28;20445;-77
2023/02/01 10:53:16;;;;;;;11.23;3.13;;;7.20;72.10;;;;;;5016349;28;20412;-77
2023/02/01 10:55:45;;;;;;;9.27;3.20;;;7.20;72.00;;;;;;5018860;28;20496;-78
2023/02/01 10:58:31;;;;;;;5.30;2.97;;;7.20;71.80;;;;;;5018658;28;20440;-78
2023/02/01 11:01:06;;;;;;;15.03;4.67;;;7.20;72.00;;;;;;5012722;28;20468;-77
2023/02/01 11:03:37;;;;;;;11.63;3.13;;;7.30;72.00;;;;;;5015600;28;20421;-78
2023/02/01 11:06:11;;;;;;;11.57;3.50;;;7.20;71.40;;;;;;5022299;28;20457;-78
2023/02/01 11:08:52;;;;;;;6.70;3.20;;;7.20;71.70;;;;;;5012057;28;20477;-78
2023/02/01 11:11:19;;;;;;;10.57;3.13;;;7.20;71.80;;;;;;5013579;28;20464;-79
2023/02/01 11:13:50;;;;;;;6.10;2.37;;;7.20;71.40;;;;;;5020821;28;20437;-79
2023/02/01 11:16:18;;;;;;;5.93;3.47;;;7.20;71.30;;;;;;5021786;28;20439;-79
2023/02/01 11:18:43;;;;;;;6.73;3.20;;;7.20;71.00;;;;;;5014569;28;20416;-78
2023/02/01 11:21:13;;;;;;;7.77;3.33;;;7.20;71.00;;;;;;5015030;28;20452;-79
2023/02/01 11:23:45;;;;;;;8.50;3.50;;;7.20;71.10;;;;;;5026585;28;20778;-78
2023/02/01 11:26:12;;;;;;;15.73;3.97;;;7.30;71.10;;;;;;5018780;28;20483;-78
2023/02/01 11:28:42;;;;;;;10.67;3.33;;;7.30;70.70;;;;;;5037973;28;20429;-78
2023/02/01 11:31:12;;;;;;;10.63;3.23;;;7.30;70.70;;;;;;5035829;28;20475;-77
2023/02/01 11:33:41;;;;;;;9.50;3.47;;;7.20;70.80;;;;;;5034454;28;21078;-79
2023/02/01 11:36:15;;;;;;;12.93;3.70;;;7.30;71.00;;;;;;5031030;28;20421;-78
2023/02/01 11:39:15;;;;;;;9.93;3.53;;;7.50;71.10;;;;;;5041689;28;20425;-76
2023/02/01 11:42:11;;;;;;;10.40;3.80;;;7.50;70.20;;;;;;5012834;28;20518;-76
2023/02/01 11:44:39;;;;;;;7.30;3.33;;;7.50;69.90;;;;;;5012555;28;20461;-78
2023/02/01 11:47:25;;;;;;;7.17;3.20;;;7.50;70.40;;;;;;5011422;28;20421;-78
2023/02/01 11:49:59;;;;;;;7.97;2.90;;;7.30;70.10;;;;;;5015945;28;20413;-77
2023/02/01 11:53:02;;;;;;;8.00;2.93;;;7.40;70.80;;;;;;5011056;28;20444;-75
2023/02/01 11:56:11;;;;;;;6.10;2.60;;;7.40;70.80;;;;;;5016157;28;20416;-75
2023/02/01 11:58:51;;;;;;;10.77;2.97;;;7.50;70.10;;;;;;5021580;28;20479;-78
2023/02/01 12:01:22;;;;;;;11.43;3.83;;;7.50;69.90;;;;;;5010435;28;20488;-76
2023/02/01 12:03:59;;;;;;;13.23;3.80;;;7.60;69.70;;;;;;5015282;28;20423;-78
2023/02/01 12:06:42;;;;;;;8.17;2.80;;;7.60;70.10;;;;;;5010439;28;20486;-76
2023/02/01 12:09:22;;;;;;;8.30;2.80;;;7.60;69.10;;;;;;5010788;28;20413;-77
2023/02/01 12:12:13;;;;;;;20.13;2.73;;;7.40;69.10;;;;;;5006106;28;20585;-75
2023/02/01 12:15:16;;;;;;;7.70;2.90;;;7.20;69.70;;;;;;5016263;28;20429;-78
2023/02/01 12:17:50;;;;;;;10.80;4.30;;;7.20;69.70;;;;;;5011795;28;20970;-76
2023/02/01 12:20:47;;;;;;;11.03;2.77;;;7.30;70.10;;;;;;5015104;28;20436;-78
2023/02/01 12:23:31;;;;;;;11.70;2.90;;;7.30;69.70;;;;;;5013539;28;20793;-78
2023/02/01 12:26:21;;;;;;;9.77;3.70;;;7.30;69.80;;;;;;5013837;28;20468;-77
2023/02/01 12:28:55;;;;;;;10.57;2.90;;;7.30;69.80;;;;;;5011530;28;20428;-77
2023/02/01 12:32:05;;;;;;;9.43;3.10;;;7.40;69.90;;;;;;5011228;28;20490;-77
2023/02/01 12:34:53;;;;;;;11.10;2.83;;;7.20;69.80;;;;;;5019050;28;20424;-77
2023/02/01 12:37:46;;;;;;;14.43;3.17;;;7.10;70.20;;;;;;5017717;28;20467;-75
2023/02/01 12:40:28;;;;;;;8.43;3.10;;;7.10;70.70;;;;;;5017675;28;20432;-75
2023/02/01 12:42:59;;;;;;;9.80;3.33;;;7.10;70.70;;;;;;5023258;28;20408;-76
2023/02/01 12:45:43;;;;;;;13.23;3.53;;;7.00;71.10;;;;;;5025461;28;20459;-76
2023/02/01 12:48:14;;;;;;;6.27;3.33;;;7.00;71.40;;;;;;5026566;28;20427;-76
2023/02/01 12:50:46;;;;;;;14.00;4.57;;;7.00;71.60;;;;;;5020716;28;20551;-75
2023/02/01 12:53:20;;;;;;;7.27;2.77;;;7.00;71.60;;;;;;5015793;28;20431;-77
2023/02/01 12:55:53;;;;;;;13.33;3.67;;;7.00;71.60;;;;;;5019381;28;20432;-77
2023/02/01 12:58:46;;;;;;;7.20;3.07;;;7.10;71.60;;;;;;5022889;28;20472;-78
2023/02/01 13:01:18;;;;;;;14.67;3.13;;;7.10;71.60;;;;;;5015242;28;20471;-77
2023/02/01 13:04:11;;;;;;;4.47;3.17;;;7.00;71.80;;;;;;5009676;28;20770;-77
2023/02/01 13:06:52;;;;;;;11.73;3.10;;;7.00;72.00;;;;;;5018095;28;20467;-75
2023/02/01 13:09:30;;;;;;;12.27;3.43;;;7.10;72.00;;;;;;5018525;28;20442;-77
2023/02/01 13:12:07;;;;;;;8.57;3.23;;;7.10;72.10;;;;;;5017682;28;20452;-78
2023/02/01 13:14:36;;;;;;;11.53;3.47;;;7.00;72.10;;;;;;5010067;28;20417;-77
2023/02/01 13:17:11;;;;;;;10.60;3.00;;;7.00;72.30;;;;;;5015123;28;20424;-76
2023/02/01 13:19:50;;;;;;;7.87;2.90;;;7.00;72.40;;;;;;5014603;28;20787;-77
2023/02/01 13:22:41;;;;;;;9.00;3.23;;;7.00;72.30;;;;;;5010666;28;20451;-77
2023/02/01 13:25:15;;;;;;;11.97;3.27;;;7.00;72.30;;;;;;5026667;28;20472;-75
2023/02/01 13:27:41;;;;;;;13.90;3.73;;;6.90;72.60;;;;;;5019549;28;20802;-74
2023/02/01 13:30:30;;;;;;;6.83;3.07;;;7.00;72.40;;;;;;5030132;28;20424;-76
2023/02/01 13:33:07;;;;;;;6.97;3.43;;;7.00;72.40;;;;;;5020420;28;20714;-75
2023/02/01 13:35:50;;;;;;;6.83;3.10;;;6.90;72.30;;;;;;5029963;28;20516;-75
2023/02/01 13:38:40;;;;;;;16.60;3.80;;;7.10;72.10;;;;;;5015950;28;20428;-76